sensor_id;sensor_type;location;lat;lon;timestamp;temperature;humidity
6627;DHT22;3349;49.830;8.748;2023-04-08T00:00:43;8.00;99.90
6627;DHT22;3349;49.830;8.748;2023-04-08T00:03:10;8.00;99.90
6627;DHT22;3349;49.830;8.748;2023-04-08T00:05:37;8.10;99.90
6627;DHT22;3349;49.830;8.748;2023-04-08T00:08:04;8.10;99.90
6627;DHT22;3349;49.830;8.748;2023-04-08T00:10:32;8.00;99.90
6627;DHT22;3349;49.830;8.748;2023-04-08T00:12:59;8.00;99.90
6627;DHT22;3349;49.830;8.748;2023-04-08T00:15:26;8.00;99.90
6627;DHT22;3349;49.830;8.748;2023-04-08T00:17:53;8.00;99.90
6627;DHT22;3349;49.830;8.748;2023-04-08T00:20:20;8.00;99.90
6627;DHT22;3349;49.830;8.748;2023-04-08T00:22:46;8.00;99.90
6627;DHT22;3349;49.830;8.748;2023-04-08T00:25:13;8.00;99.90
6627;DHT22;3349;49.830;8.748;2023-04-08T00:27:41;7.90;99.90
6627;DHT22;3349;49.830;8.748;2023-04-08T00:30:08;7.90;99.90
6627;DHT22;3349;49.830;8.748;2023-04-08T00:32:36;7.80;99.90
6627;DHT22;3349;49.830;8.748;2023-04-08T00:35:03;7.70;99.90
6627;DHT22;3349;49.830;8.748;2023-04-08T00:37:30;7.70;99.90
6627;DHT22;3349;49.830;8.748;2023-04-08T00:39:57;7.70;99.90
6627;DHT22;3349;49.830;8.748;2023-04-08T00:42:23;7.70;99.90
6627;DHT22;3349;49.830;8.748;2023-04-08T00:44:51;7.60;99.90
6627;DHT22;3349;49.830;8.748;2023-04-08T00:47:18;7.60;99.90
6627;DHT22;3349;49.830;8.748;2023-04-08T00:49:45;7.50;99.90
6627;DHT22;3349;49.830;8.748;2023-04-08T00:52:12;7.60;99.90
6627;DHT22;3349;49.830;8.748;2023-04-08T00:54:40;7.60;99.90
6627;DHT22;3349;49.830;8.748;2023-04-08T00:57:07;7.60;99.90
6627;DHT22;3349;49.830;8.748;2023-04-08T00:59:34;7.50;99.90
6627;DHT22;3349;49.830;8.748;2023-04-08T01:02:10;7.50;99.90
6627;DHT22;3349;49.830;8.748;2023-04-08T01:04:44;7.50;99.90
6627;DHT22;3349;49.830;8.748;2023-04-08T01:07:17;7.50;99.90
6627;DHT22;3349;49.830;8.748;2023-04-08T01:09:49;7.50;99.90
6627;DHT22;3349;49.830;8.748;2023-04-08T01:12:21;7.50;99.90
6627;DHT22;3349;49.830;8.748;2023-04-08T01:14:53;7.50;99.90
6627;DHT22;3349;49.830;8.748;2023-04-08T01:17:23;7.60;99.90
6627;DHT22;3349;49.830;8.748;2023-04-08T01:19:50;7.50;99.90
6627;DHT22;3349;49.830;8.748;2023-04-08T01:22:24;7.60;99.90
6627;DHT22;3349;49.830;8.748;2023-04-08T01:24:58;7.60;99.90
6627;DHT22;3349;49.830;8.748;2023-04-08T01:27:27;7.60;99.90
6627;DHT22;3349;49.830;8.748;2023-04-08T01:29:57;7.60;99.90
6627;DHT22;3349;49.830;8.748;2023-04-08T01:32:25;7.60;99.90
6627;DHT22;3349;49.830;8.748;2023-04-08T01:34:53;7.60;99.90
6627;DHT22;3349;49.830;8.748;2023-04-08T01:37:21;7.60;99.90
6627;DHT22;3349;49.830;8.748;2023-04-08T01:39:49;7.60;99.90
6627;DHT22;3349;49.830;8.748;2023-04-08T01:42:17;7.60;99.90
6627;DHT22;3349;49.830;8.748;2023-04-08T01:44:45;7.50;99.90
6627;DHT22;3349;49.830;8.748;2023-04-08T01:47:12;7.50;99.90
6627;DHT22;3349;49.830;8.748;2023-04-08T01:49:40;7.60;99.90
6627;DHT22;3349;49.830;8.748;2023-04-08T01:52:08;7.50;99.90
6627;DHT22;3349;49.830;8.748;2023-04-08T01:54:35;7.60;99.90
6627;DHT22;3349;49.830;8.748;2023-04-08T01:57:04;7.60;99.90
6627;DHT22;3349;49.830;8.748;2023-04-08T01:59:34;7.60;99.90
6627;DHT22;3349;49.830;8.748;2023-04-08T02:02:05;7.50;99.90
6627;DHT22;3349;49.830;8.748;2023-04-08T02:04:35;7.50;99.90
6627;DHT22;3349;49.830;8.748;2023-04-08T02:07:03;7.50;99.90
6627;DHT22;3349;49.830;8.748;2023-04-08T02:09:30;7.50;99.90
6627;DHT22;3349;49.830;8.748;2023-04-08T02:11:56;7.50;99.90
6627;DHT22;3349;49.830;8.748;2023-04-08T02:14:23;7.40;99.90
6627;DHT22;3349;49.830;8.748;2023-04-08T02:16:53;7.40;99.90
6627;DHT22;3349;49.830;8.748;2023-04-08T02:19:26;7.40;99.90
6627;DHT22;3349;49.830;8.748;2023-04-08T02:21:57;7.40;99.90
6627;DHT22;3349;49.830;8.748;2023-04-08T02:24:26;7.40;99.90
6627;DHT22;3349;49.830;8.748;2023-04-08T02:26:54;7.30;99.90
6627;DHT22;3349;49.830;8.748;2023-04-08T02:29:23;7.30;99.90
6627;DHT22;3349;49.830;8.748;2023-04-08T02:31:50;7.30;99.90
6627;DHT22;3349;49.830;8.748;2023-04-08T02:34:17;7.20;99.90
6627;DHT22;3349;49.830;8.748;2023-04-08T02:36:48;7.20;99.90
6627;DHT22;3349;49.830;8.748;2023-04-08T02:39:15;7.10;99.90
6627;DHT22;3349;49.830;8.748;2023-04-08T02:41:42;7.10;99.90
6627;DHT22;3349;49.830;8.748;2023-04-08T02:44:09;7.00;99.90
6627;DHT22;3349;49.830;8.748;2023-04-08T02:46:35;6.90;99.90
6627;DHT22;3349;49.830;8.748;2023-04-08T02:49:02;6.80;99.90
6627;DHT22;3349;49.830;8.748;2023-04-08T02:51:29;6.80;99.90
6627;DHT22;3349;49.830;8.748;2023-04-08T02:53:57;6.70;99.90
6627;DHT22;3349;49.830;8.748;2023-04-08T02:56:24;6.60;99.90
6627;DHT22;3349;49.830;8.748;2023-04-08T02:58:51;6.60;99.90
6627;DHT22;3349;49.830;8.748;2023-04-08T03:01:18;6.50;99.90
6627;DHT22;3349;49.830;8.748;2023-04-08T03:03:44;6.40;99.90
6627;DHT22;3349;49.830;8.748;2023-04-08T03:06:11;6.40;99.90
6627;DHT22;3349;49.830;8.748;2023-04-08T03:08:38;6.30;99.90
6627;DHT22;3349;49.830;8.748;2023-04-08T03:11:06;6.20;99.90
6627;DHT22;3349;49.830;8.748;2023-04-08T03:13:32;6.20;99.90
6627;DHT22;3349;49.830;8.748;2023-04-08T03:16:00;6.20;99.90
6627;DHT22;3349;49.830;8.748;2023-04-08T03:18:27;6.10;99.90
6627;DHT22;3349;49.830;8.748;2023-04-08T03:20:53;6.10;99.90
6627;DHT22;3349;49.830;8.748;2023-04-08T03:23:20;6.00;99.90
6627;DHT22;3349;49.830;8.748;2023-04-08T03:25:47;6.00;99.90
6627;DHT22;3349;49.830;8.748;2023-04-08T03:28:14;6.00;99.90
6627;DHT22;3349;49.830;8.748;2023-04-08T03:30:41;5.90;99.90
6627;DHT22;3349;49.830;8.748;2023-04-08T03:33:08;5.90;99.90
6627;DHT22;3349;49.830;8.748;2023-04-08T03:35:35;5.80;99.90
6627;DHT22;3349;49.830;8.748;2023-04-08T03:38:02;5.90;99.90
6627;DHT22;3349;49.830;8.748;2023-04-08T03:40:28;5.80;99.90
6627;DHT22;3349;49.830;8.748;2023-04-08T03:42:55;5.80;99.90
6627;DHT22;3349;49.830;8.748;2023-04-08T03:45:23;5.80;99.90
6627;DHT22;3349;49.830;8.748;2023-04-08T03:47:50;5.80;99.90
6627;DHT22;3349;49.830;8.748;2023-04-08T03:50:17;5.70;99.90
6627;DHT22;3349;49.830;8.748;2023-04-08T03:52:44;5.80;99.90
6627;DHT22;3349;49.830;8.748;2023-04-08T03:55:10;5.80;99.90
6627;DHT22;3349;49.830;8.748;2023-04-08T03:57:51;5.80;99.90
6627;DHT22;3349;49.830;8.748;2023-04-08T04:00:18;5.80;99.90
6627;DHT22;3349;49.830;8.748;2023-04-08T04:02:47;5.80;99.90
6627;DHT22;3349;49.830;8.748;2023-04-08T04:05:13;5.80;99.90
6627;DHT22;3349;49.830;8.748;2023-04-08T04:07:40;5.90;99.90
6627;DHT22;3349;49.830;8.748;2023-04-08T04:10:07;5.70;99.90
6627;DHT22;3349;49.830;8.748;2023-04-08T04:12:35;5.70;99.90
6627;DHT22;3349;49.830;8.748;2023-04-08T04:15:02;5.60;99.90
6627;DHT22;3349;49.830;8.748;2023-04-08T04:17:28;5.60;99.90
6627;DHT22;3349;49.830;8.748;2023-04-08T04:19:56;5.50;99.90
6627;DHT22;3349;49.830;8.748;2023-04-08T04:22:23;5.40;99.90
6627;DHT22;3349;49.830;8.748;2023-04-08T04:24:50;5.40;99.90
6627;DHT22;3349;49.830;8.748;2023-04-08T04:27:16;5.30;99.90
6627;DHT22;3349;49.830;8.748;2023-04-08T04:29:43;5.20;99.90
6627;DHT22;3349;49.830;8.748;2023-04-08T04:32:10;5.10;99.90
6627;DHT22;3349;49.830;8.748;2023-04-08T04:34:36;5.10;99.90
6627;DHT22;3349;49.830;8.748;2023-04-08T04:37:04;5.00;99.90
6627;DHT22;3349;49.830;8.748;2023-04-08T04:39:31;5.00;99.90
6627;DHT22;3349;49.830;8.748;2023-04-08T04:41:58;5.00;99.90
6627;DHT22;3349;49.830;8.748;2023-04-08T04:44:24;4.90;99.90
6627;DHT22;3349;49.830;8.748;2023-04-08T04:46:51;4.90;99.90
6627;DHT22;3349;49.830;8.748;2023-04-08T04:49:18;4.80;99.90
6627;DHT22;3349;49.830;8.748;2023-04-08T04:51:45;4.80;99.90
6627;DHT22;3349;49.830;8.748;2023-04-08T04:54:13;4.70;99.90
6627;DHT22;3349;49.830;8.748;2023-04-08T04:56:39;4.60;99.90
6627;DHT22;3349;49.830;8.748;2023-04-08T04:59:06;4.60;99.90
6627;DHT22;3349;49.830;8.748;2023-04-08T05:01:33;4.60;99.90
6627;DHT22;3349;49.830;8.748;2023-04-08T05:04:00;4.50;99.90
6627;DHT22;3349;49.830;8.748;2023-04-08T05:06:26;4.60;99.90
6627;DHT22;3349;49.830;8.748;2023-04-08T05:08:53;4.50;99.90
6627;DHT22;3349;49.830;8.748;2023-04-08T05:11:21;4.50;99.90
6627;DHT22;3349;49.830;8.748;2023-04-08T05:13:48;4.50;99.90
6627;DHT22;3349;49.830;8.748;2023-04-08T05:16:15;4.50;99.90
6627;DHT22;3349;49.830;8.748;2023-04-08T05:18:42;4.50;99.90
6627;DHT22;3349;49.830;8.748;2023-04-08T05:21:09;4.40;99.90
6627;DHT22;3349;49.830;8.748;2023-04-08T05:23:36;4.40;99.90
6627;DHT22;3349;49.830;8.748;2023-04-08T05:26:05;4.40;99.90
6627;DHT22;3349;49.830;8.748;2023-04-08T05:28:34;4.40;99.90
6627;DHT22;3349;49.830;8.748;2023-04-08T05:31:01;4.40;99.90
6627;DHT22;3349;49.830;8.748;2023-04-08T05:33:27;4.40;99.90
6627;DHT22;3349;49.830;8.748;2023-04-08T05:35:54;4.40;99.90
6627;DHT22;3349;49.830;8.748;2023-04-08T05:38:21;4.40;99.90
6627;DHT22;3349;49.830;8.748;2023-04-08T05:40:47;4.40;99.90
6627;DHT22;3349;49.830;8.748;2023-04-08T05:43:14;4.40;99.90
6627;DHT22;3349;49.830;8.748;2023-04-08T05:45:42;4.40;99.90
6627;DHT22;3349;49.830;8.748;2023-04-08T05:48:09;4.50;99.90
6627;DHT22;3349;49.830;8.748;2023-04-08T05:50:36;4.50;99.90
6627;DHT22;3349;49.830;8.748;2023-04-08T05:53:03;4.50;99.90
6627;DHT22;3349;49.830;8.748;2023-04-08T05:55:29;4.60;99.90
6627;DHT22;3349;49.830;8.748;2023-04-08T05:57:56;4.70;99.90
6627;DHT22;3349;49.830;8.748;2023-04-08T06:00:23;4.80;99.90
6627;DHT22;3349;49.830;8.748;2023-04-08T06:02:52;4.90;99.90
6627;DHT22;3349;49.830;8.748;2023-04-08T06:05:19;5.00;99.90
6627;DHT22;3349;49.830;8.748;2023-04-08T06:07:46;5.10;99.90
6627;DHT22;3349;49.830;8.748;2023-04-08T06:10:12;5.20;99.90
6627;DHT22;3349;49.830;8.748;2023-04-08T06:12:40;5.30;99.90
6627;DHT22;3349;49.830;8.748;2023-04-08T06:15:08;5.40;99.90
6627;DHT22;3349;49.830;8.748;2023-04-08T06:17:35;5.50;99.90
6627;DHT22;3349;49.830;8.748;2023-04-08T06:20:04;5.60;99.90
6627;DHT22;3349;49.830;8.748;2023-04-08T06:22:33;5.60;99.90
6627;DHT22;3349;49.830;8.748;2023-04-08T06:25:00;5.70;99.90
6627;DHT22;3349;49.830;8.748;2023-04-08T06:27:27;5.70;99.90
6627;DHT22;3349;49.830;8.748;2023-04-08T06:29:54;5.80;99.90
6627;DHT22;3349;49.830;8.748;2023-04-08T06:32:21;5.80;99.90
6627;DHT22;3349;49.830;8.748;2023-04-08T06:34:48;5.90;99.90
6627;DHT22;3349;49.830;8.748;2023-04-08T06:37:16;5.90;99.90
6627;DHT22;3349;49.830;8.748;2023-04-08T06:39:43;6.00;99.90
6627;DHT22;3349;49.830;8.748;2023-04-08T06:42:09;6.10;99.90
6627;DHT22;3349;49.830;8.748;2023-04-08T06:44:36;6.20;99.90
6627;DHT22;3349;49.830;8.748;2023-04-08T06:47:03;6.30;99.90
6627;DHT22;3349;49.830;8.748;2023-04-08T06:49:30;6.30;99.90
6627;DHT22;3349;49.830;8.748;2023-04-08T06:51:57;6.40;99.90
6627;DHT22;3349;49.830;8.748;2023-04-08T06:54:25;6.50;99.90
6627;DHT22;3349;49.830;8.748;2023-04-08T06:56:52;6.50;99.90
6627;DHT22;3349;49.830;8.748;2023-04-08T06:59:18;6.60;99.90
6627;DHT22;3349;49.830;8.748;2023-04-08T07:01:45;6.70;99.40
6627;DHT22;3349;49.830;8.748;2023-04-08T07:04:12;6.80;99.20
6627;DHT22;3349;49.830;8.748;2023-04-08T07:06:38;7.00;99.10
6627;DHT22;3349;49.830;8.748;2023-04-08T07:09:05;7.10;96.80
6627;DHT22;3349;49.830;8.748;2023-04-08T07:11:33;7.20;95.50
6627;DHT22;3349;49.830;8.748;2023-04-08T07:14:00;7.30;95.30
6627;DHT22;3349;49.830;8.748;2023-04-08T07:16:27;7.40;93.70
6627;DHT22;3349;49.830;8.748;2023-04-08T07:18:53;7.50;91.90
6627;DHT22;3349;49.830;8.748;2023-04-08T07:21:21;7.50;90.90
6627;DHT22;3349;49.830;8.748;2023-04-08T07:23:48;7.70;90.90
6627;DHT22;3349;49.830;8.748;2023-04-08T07:26:14;7.80;90.60
6627;DHT22;3349;49.830;8.748;2023-04-08T07:28:42;8.00;89.20
6627;DHT22;3349;49.830;8.748;2023-04-08T07:31:10;8.00;86.30
6627;DHT22;3349;49.830;8.748;2023-04-08T07:33:37;7.90;85.30
6627;DHT22;3349;49.830;8.748;2023-04-08T07:36:04;8.00;83.70
6627;DHT22;3349;49.830;8.748;2023-04-08T07:38:31;8.10;82.90
6627;DHT22;3349;49.830;8.748;2023-04-08T07:40:58;8.30;83.00
6627;DHT22;3349;49.830;8.748;2023-04-08T07:43:24;8.40;81.10
6627;DHT22;3349;49.830;8.748;2023-04-08T07:45:53;8.50;78.80
6627;DHT22;3349;49.830;8.748;2023-04-08T07:48:19;8.80;77.00
6627;DHT22;3349;49.830;8.748;2023-04-08T07:50:46;9.10;75.50
6627;DHT22;3349;49.830;8.748;2023-04-08T07:53:13;9.60;72.00
6627;DHT22;3349;49.830;8.748;2023-04-08T07:55:40;10.00;70.30
6627;DHT22;3349;49.830;8.748;2023-04-08T07:58:07;10.30;65.20
6627;DHT22;3349;49.830;8.748;2023-04-08T08:00:34;11.00;64.60
6627;DHT22;3349;49.830;8.748;2023-04-08T08:03:02;11.60;61.90
6627;DHT22;3349;49.830;8.748;2023-04-08T08:05:29;12.20;58.20
6627;DHT22;3349;49.830;8.748;2023-04-08T08:07:56;12.10;54.70
6627;DHT22;3349;49.830;8.748;2023-04-08T08:10:22;11.60;55.30
6627;DHT22;3349;49.830;8.748;2023-04-08T08:12:49;11.40;55.90
6627;DHT22;3349;49.830;8.748;2023-04-08T08:15:16;11.30;56.00
6627;DHT22;3349;49.830;8.748;2023-04-08T08:17:43;11.20;57.40
6627;DHT22;3349;49.830;8.748;2023-04-08T08:20:12;11.50;56.70
6627;DHT22;3349;49.830;8.748;2023-04-08T08:22:39;11.60;55.90
6627;DHT22;3349;49.830;8.748;2023-04-08T08:25:06;11.60;56.40
6627;DHT22;3349;49.830;8.748;2023-04-08T08:27:34;11.10;56.00
6627;DHT22;3349;49.830;8.748;2023-04-08T08:30:01;11.20;55.30
6627;DHT22;3349;49.830;8.748;2023-04-08T08:32:28;11.20;55.50
6627;DHT22;3349;49.830;8.748;2023-04-08T08:34:56;11.10;56.00
6627;DHT22;3349;49.830;8.748;2023-04-08T08:37:24;11.30;55.90
6627;DHT22;3349;49.830;8.748;2023-04-08T08:39:51;11.20;55.20
6627;DHT22;3349;49.830;8.748;2023-04-08T08:42:18;10.90;55.60
6627;DHT22;3349;49.830;8.748;2023-04-08T08:44:46;10.70;54.80
6627;DHT22;3349;49.830;8.748;2023-04-08T08:47:13;10.60;55.70
6627;DHT22;3349;49.830;8.748;2023-04-08T08:49:40;10.50;55.30
6627;DHT22;3349;49.830;8.748;2023-04-08T08:52:07;10.40;55.70
6627;DHT22;3349;49.830;8.748;2023-04-08T08:54:35;10.40;56.70
6627;DHT22;3349;49.830;8.748;2023-04-08T08:57:02;10.40;56.70
6627;DHT22;3349;49.830;8.748;2023-04-08T08:59:29;10.50;57.70
6627;DHT22;3349;49.830;8.748;2023-04-08T09:01:56;10.50;56.80
6627;DHT22;3349;49.830;8.748;2023-04-08T09:04:23;10.50;56.00
6627;DHT22;3349;49.830;8.748;2023-04-08T09:07:08;10.60;55.80
6627;DHT22;3349;49.830;8.748;2023-04-08T09:09:48;10.70;54.30
6627;DHT22;3349;49.830;8.748;2023-04-08T09:12:15;11.00;54.40
6627;DHT22;3349;49.830;8.748;2023-04-08T09:14:42;11.10;53.00
6627;DHT22;3349;49.830;8.748;2023-04-08T09:17:09;10.90;50.90
6627;DHT22;3349;49.830;8.748;2023-04-08T09:19:36;10.90;51.30
6627;DHT22;3349;49.830;8.748;2023-04-08T09:22:04;10.80;49.60
6627;DHT22;3349;49.830;8.748;2023-04-08T09:24:32;10.60;50.60
6627;DHT22;3349;49.830;8.748;2023-04-08T09:27:00;10.50;50.00
6627;DHT22;3349;49.830;8.748;2023-04-08T09:29:26;10.30;51.60
6627;DHT22;3349;49.830;8.748;2023-04-08T09:31:54;10.30;51.90
6627;DHT22;3349;49.830;8.748;2023-04-08T09:34:22;10.20;51.50
6627;DHT22;3349;49.830;8.748;2023-04-08T09:36:49;10.20;51.60
6627;DHT22;3349;49.830;8.748;2023-04-08T09:39:16;9.90;51.30
6627;DHT22;3349;49.830;8.748;2023-04-08T09:41:43;10.00;51.10
6627;DHT22;3349;49.830;8.748;2023-04-08T09:44:11;10.00;51.60
6627;DHT22;3349;49.830;8.748;2023-04-08T09:46:50;10.00;51.40
6627;DHT22;3349;49.830;8.748;2023-04-08T09:49:24;10.20;51.50
6627;DHT22;3349;49.830;8.748;2023-04-08T09:51:55;10.60;51.60
6627;DHT22;3349;49.830;8.748;2023-04-08T09:54:31;10.60;50.20
6627;DHT22;3349;49.830;8.748;2023-04-08T09:57:08;10.80;50.40
6627;DHT22;3349;49.830;8.748;2023-04-08T09:59:38;10.80;49.90
6627;DHT22;3349;49.830;8.748;2023-04-08T10:02:10;10.70;49.60
6627;DHT22;3349;49.830;8.748;2023-04-08T10:04:39;10.80;50.20
6627;DHT22;3349;49.830;8.748;2023-04-08T10:07:07;10.70;49.60
6627;DHT22;3349;49.830;8.748;2023-04-08T10:09:35;10.70;48.90
6627;DHT22;3349;49.830;8.748;2023-04-08T10:12:03;10.70;49.00
6627;DHT22;3349;49.830;8.748;2023-04-08T10:14:30;10.70;49.00
6627;DHT22;3349;49.830;8.748;2023-04-08T10:17:26;10.70;50.40
6627;DHT22;3349;49.830;8.748;2023-04-08T10:19:54;10.90;49.70
6627;DHT22;3349;49.830;8.748;2023-04-08T10:22:45;10.90;50.40
6627;DHT22;3349;49.830;8.748;2023-04-08T10:25:33;10.80;50.30
6627;DHT22;3349;49.830;8.748;2023-04-08T10:28:01;10.90;50.40
6627;DHT22;3349;49.830;8.748;2023-04-08T10:30:48;11.10;49.30
6627;DHT22;3349;49.830;8.748;2023-04-08T10:33:19;11.10;49.00
6627;DHT22;3349;49.830;8.748;2023-04-08T10:35:48;11.20;47.80
6627;DHT22;3349;49.830;8.748;2023-04-08T10:38:15;11.30;48.00
6627;DHT22;3349;49.830;8.748;2023-04-08T10:40:43;11.50;47.60
6627;DHT22;3349;49.830;8.748;2023-04-08T10:43:11;11.60;46.50
6627;DHT22;3349;49.830;8.748;2023-04-08T10:45:39;11.80;46.50
6627;DHT22;3349;49.830;8.748;2023-04-08T10:48:15;11.50;46.60
6627;DHT22;3349;49.830;8.748;2023-04-08T10:50:43;11.80;46.80
6627;DHT22;3349;49.830;8.748;2023-04-08T10:53:10;12.10;46.30
6627;DHT22;3349;49.830;8.748;2023-04-08T10:55:37;12.50;46.00
6627;DHT22;3349;49.830;8.748;2023-04-08T10:58:05;12.30;45.80
6627;DHT22;3349;49.830;8.748;2023-04-08T11:00:34;12.50;46.00
6627;DHT22;3349;49.830;8.748;2023-04-08T11:03:02;12.60;45.20
6627;DHT22;3349;49.830;8.748;2023-04-08T11:05:31;12.50;45.60
6627;DHT22;3349;49.830;8.748;2023-04-08T11:07:58;12.40;46.30
6627;DHT22;3349;49.830;8.748;2023-04-08T11:10:25;12.30;46.70
6627;DHT22;3349;49.830;8.748;2023-04-08T11:12:53;12.10;47.30
6627;DHT22;3349;49.830;8.748;2023-04-08T11:15:20;12.00;47.30
6627;DHT22;3349;49.830;8.748;2023-04-08T11:17:47;12.00;47.80
6627;DHT22;3349;49.830;8.748;2023-04-08T11:20:14;12.10;48.80
6627;DHT22;3349;49.830;8.748;2023-04-08T11:22:42;12.60;48.90
6627;DHT22;3349;49.830;8.748;2023-04-08T11:25:10;12.90;47.90
6627;DHT22;3349;49.830;8.748;2023-04-08T11:27:37;12.90;47.30
6627;DHT22;3349;49.830;8.748;2023-04-08T11:30:06;12.90;47.80
6627;DHT22;3349;49.830;8.748;2023-04-08T11:32:33;13.00;47.70
6627;DHT22;3349;49.830;8.748;2023-04-08T11:35:01;13.00;47.90
6627;DHT22;3349;49.830;8.748;2023-04-08T11:37:35;12.90;47.90
6627;DHT22;3349;49.830;8.748;2023-04-08T11:40:07;12.90;48.30
6627;DHT22;3349;49.830;8.748;2023-04-08T11:42:34;12.40;48.70
6627;DHT22;3349;49.830;8.748;2023-04-08T11:45:09;12.50;50.50
6627;DHT22;3349;49.830;8.748;2023-04-08T11:47:36;12.50;49.40
6627;DHT22;3349;49.830;8.748;2023-04-08T11:50:03;12.50;49.60
6627;DHT22;3349;49.830;8.748;2023-04-08T11:52:48;12.50;49.90
6627;DHT22;3349;49.830;8.748;2023-04-08T11:55:23;12.40;50.40
6627;DHT22;3349;49.830;8.748;2023-04-08T11:57:50;12.80;50.60
6627;DHT22;3349;49.830;8.748;2023-04-08T12:00:17;13.90;47.70
6627;DHT22;3349;49.830;8.748;2023-04-08T12:02:44;15.70;45.00
6627;DHT22;3349;49.830;8.748;2023-04-08T12:05:12;17.10;42.20
6627;DHT22;3349;49.830;8.748;2023-04-08T12:07:39;17.80;40.70
6627;DHT22;3349;49.830;8.748;2023-04-08T12:10:07;19.20;38.20
6627;DHT22;3349;49.830;8.748;2023-04-08T12:12:35;18.90;36.10
6627;DHT22;3349;49.830;8.748;2023-04-08T12:15:02;18.80;36.40
6627;DHT22;3349;49.830;8.748;2023-04-08T12:17:29;18.00;36.20
6627;DHT22;3349;49.830;8.748;2023-04-08T12:19:56;17.30;37.80
6627;DHT22;3349;49.830;8.748;2023-04-08T12:22:23;16.90;38.50
6627;DHT22;3349;49.830;8.748;2023-04-08T12:24:50;16.60;38.30
6627;DHT22;3349;49.830;8.748;2023-04-08T12:27:16;16.50;39.70
6627;DHT22;3349;49.830;8.748;2023-04-08T12:29:44;16.60;39.40
6627;DHT22;3349;49.830;8.748;2023-04-08T12:32:11;17.00;38.90
6627;DHT22;3349;49.830;8.748;2023-04-08T12:34:39;17.40;37.90
6627;DHT22;3349;49.830;8.748;2023-04-08T12:37:06;17.30;37.80
6627;DHT22;3349;49.830;8.748;2023-04-08T12:39:32;17.10;37.70
6627;DHT22;3349;49.830;8.748;2023-04-08T12:41:59;16.60;37.80
6627;DHT22;3349;49.830;8.748;2023-04-08T12:44:26;16.60;38.60
6627;DHT22;3349;49.830;8.748;2023-04-08T12:46:54;16.00;39.00
6627;DHT22;3349;49.830;8.748;2023-04-08T12:49:22;15.80;40.10
6627;DHT22;3349;49.830;8.748;2023-04-08T12:51:49;15.90;40.90
6627;DHT22;3349;49.830;8.748;2023-04-08T12:54:15;16.00;40.90
6627;DHT22;3349;49.830;8.748;2023-04-08T12:56:42;15.80;40.40
6627;DHT22;3349;49.830;8.748;2023-04-08T12:59:10;15.40;40.70
6627;DHT22;3349;49.830;8.748;2023-04-08T13:01:36;15.20;42.20
6627;DHT22;3349;49.830;8.748;2023-04-08T13:04:05;14.70;41.90
6627;DHT22;3349;49.830;8.748;2023-04-08T13:06:32;14.30;43.80
6627;DHT22;3349;49.830;8.748;2023-04-08T13:08:58;14.20;43.70
6627;DHT22;3349;49.830;8.748;2023-04-08T13:11:25;13.90;43.40
6627;DHT22;3349;49.830;8.748;2023-04-08T13:13:52;14.00;43.50
6627;DHT22;3349;49.830;8.748;2023-04-08T13:16:19;13.90;44.40
6627;DHT22;3349;49.830;8.748;2023-04-08T13:18:46;13.90;44.10
6627;DHT22;3349;49.830;8.748;2023-04-08T13:21:14;13.60;45.00
6627;DHT22;3349;49.830;8.748;2023-04-08T13:23:41;13.70;46.00
6627;DHT22;3349;49.830;8.748;2023-04-08T13:26:07;13.80;46.10
6627;DHT22;3349;49.830;8.748;2023-04-08T13:28:34;13.90;46.00
6627;DHT22;3349;49.830;8.748;2023-04-08T13:31:01;13.80;45.90
6627;DHT22;3349;49.830;8.748;2023-04-08T13:33:28;13.90;46.00
6627;DHT22;3349;49.830;8.748;2023-04-08T13:35:54;14.20;46.90
6627;DHT22;3349;49.830;8.748;2023-04-08T13:38:23;14.50;46.10
6627;DHT22;3349;49.830;8.748;2023-04-08T13:40:49;14.70;46.20
6627;DHT22;3349;49.830;8.748;2023-04-08T13:43:16;15.20;45.20
6627;DHT22;3349;49.830;8.748;2023-04-08T13:45:43;15.20;44.00
6627;DHT22;3349;49.830;8.748;2023-04-08T13:48:10;15.10;44.40
6627;DHT22;3349;49.830;8.748;2023-04-08T13:50:36;15.00;44.40
6627;DHT22;3349;49.830;8.748;2023-04-08T13:53:04;14.70;44.80
6627;DHT22;3349;49.830;8.748;2023-04-08T13:55:32;14.50;44.70
6627;DHT22;3349;49.830;8.748;2023-04-08T13:57:59;14.10;45.50
6627;DHT22;3349;49.830;8.748;2023-04-08T14:00:26;14.00;46.80
6627;DHT22;3349;49.830;8.748;2023-04-08T14:02:55;13.70;47.00
6627;DHT22;3349;49.830;8.748;2023-04-08T14:05:22;13.60;48.20
6627;DHT22;3349;49.830;8.748;2023-04-08T14:07:49;13.30;48.60
6627;DHT22;3349;49.830;8.748;2023-04-08T14:10:16;13.10;49.70
6627;DHT22;3349;49.830;8.748;2023-04-08T14:12:44;13.00;50.20
6627;DHT22;3349;49.830;8.748;2023-04-08T14:15:11;12.90;50.80
6627;DHT22;3349;49.830;8.748;2023-04-08T14:17:37;12.80;50.70
6627;DHT22;3349;49.830;8.748;2023-04-08T14:20:08;12.80;51.30
6627;DHT22;3349;49.830;8.748;2023-04-08T14:22:35;12.90;52.20
6627;DHT22;3349;49.830;8.748;2023-04-08T14:25:02;13.00;52.00
6627;DHT22;3349;49.830;8.748;2023-04-08T14:27:28;13.00;51.90
6627;DHT22;3349;49.830;8.748;2023-04-08T14:29:57;13.00;51.90
6627;DHT22;3349;49.830;8.748;2023-04-08T14:32:23;13.00;52.20
6627;DHT22;3349;49.830;8.748;2023-04-08T14:34:50;13.00;52.50
6627;DHT22;3349;49.830;8.748;2023-04-08T14:37:17;13.00;52.50
6627;DHT22;3349;49.830;8.748;2023-04-08T14:39:43;13.10;52.60
6627;DHT22;3349;49.830;8.748;2023-04-08T14:42:11;13.20;52.60
6627;DHT22;3349;49.830;8.748;2023-04-08T14:44:37;13.00;52.80
6627;DHT22;3349;49.830;8.748;2023-04-08T14:47:05;13.10;52.90
6627;DHT22;3349;49.830;8.748;2023-04-08T14:49:32;13.10;52.80
6627;DHT22;3349;49.830;8.748;2023-04-08T14:51:59;13.10;53.80
6627;DHT22;3349;49.830;8.748;2023-04-08T14:54:26;13.10;54.10
6627;DHT22;3349;49.830;8.748;2023-04-08T14:56:52;13.10;53.00
6627;DHT22;3349;49.830;8.748;2023-04-08T14:59:19;13.10;53.30
6627;DHT22;3349;49.830;8.748;2023-04-08T15:01:46;13.00;53.50
6627;DHT22;3349;49.830;8.748;2023-04-08T15:04:14;13.00;54.40
6627;DHT22;3349;49.830;8.748;2023-04-08T15:06:41;12.90;54.30
6627;DHT22;3349;49.830;8.748;2023-04-08T15:09:08;12.90;54.40
6627;DHT22;3349;49.830;8.748;2023-04-08T15:11:35;13.00;54.10
6627;DHT22;3349;49.830;8.748;2023-04-08T15:14:02;12.90;54.20
6627;DHT22;3349;49.830;8.748;2023-04-08T15:16:29;12.80;54.00
6627;DHT22;3349;49.830;8.748;2023-04-08T15:18:55;12.90;54.70
6627;DHT22;3349;49.830;8.748;2023-04-08T15:21:25;13.00;55.20
6627;DHT22;3349;49.830;8.748;2023-04-08T15:23:52;12.90;54.80
6627;DHT22;3349;49.830;8.748;2023-04-08T15:26:19;12.90;55.20
6627;DHT22;3349;49.830;8.748;2023-04-08T15:28:47;12.90;55.30
6627;DHT22;3349;49.830;8.748;2023-04-08T15:31:13;13.00;55.60
6627;DHT22;3349;49.830;8.748;2023-04-08T15:33:40;13.00;55.20
6627;DHT22;3349;49.830;8.748;2023-04-08T15:36:07;13.10;54.90
6627;DHT22;3349;49.830;8.748;2023-04-08T15:38:35;13.10;54.10
6627;DHT22;3349;49.830;8.748;2023-04-08T15:41:02;13.20;53.50
6627;DHT22;3349;49.830;8.748;2023-04-08T15:43:29;13.20;53.90
6627;DHT22;3349;49.830;8.748;2023-04-08T15:45:56;13.10;54.00
6627;DHT22;3349;49.830;8.748;2023-04-08T15:48:22;13.20;53.60
6627;DHT22;3349;49.830;8.748;2023-04-08T15:50:50;13.00;53.90
6627;DHT22;3349;49.830;8.748;2023-04-08T15:53:16;13.00;54.10
6627;DHT22;3349;49.830;8.748;2023-04-08T15:55:44;12.90;54.70
6627;DHT22;3349;49.830;8.748;2023-04-08T15:58:11;12.90;54.90
6627;DHT22;3349;49.830;8.748;2023-04-08T16:00:38;13.10;54.90
6627;DHT22;3349;49.830;8.748;2023-04-08T16:03:05;13.00;54.10
6627;DHT22;3349;49.830;8.748;2023-04-08T16:05:36;13.00;54.30
6627;DHT22;3349;49.830;8.748;2023-04-08T16:08:04;13.00;54.90
6627;DHT22;3349;49.830;8.748;2023-04-08T16:10:31;13.10;55.40
6627;DHT22;3349;49.830;8.748;2023-04-08T16:13:00;13.20;55.10